sensor_id;sensor_type;location;lat;lon;timestamp;temperature;humidity
12841;DHT22;6487;48.626;12.486;2023-11-18T00:00:32;5.60;99.90
12841;DHT22;6487;48.626;12.486;2023-11-18T00:03:01;5.50;99.90
12841;DHT22;6487;48.626;12.486;2023-11-18T00:05:30;5.60;99.90
12841;DHT22;6487;48.626;12.486;2023-11-18T00:07:58;5.70;99.90
12841;DHT22;6487;48.626;12.486;2023-11-18T00:10:27;5.70;99.90
12841;DHT22;6487;48.626;12.486;2023-11-18T00:12:57;5.70;99.90
12841;DHT22;6487;48.626;12.486;2023-11-18T00:15:26;5.70;99.90
12841;DHT22;6487;48.626;12.486;2023-11-18T00:17:54;5.80;99.90
12841;DHT22;6487;48.626;12.486;2023-11-18T00:20:23;5.80;99.90
12841;DHT22;6487;48.626;12.486;2023-11-18T00:22:51;5.80;99.90
12841;DHT22;6487;48.626;12.486;2023-11-18T00:25:20;5.90;99.90
12841;DHT22;6487;48.626;12.486;2023-11-18T00:27:49;5.90;99.90
12841;DHT22;6487;48.626;12.486;2023-11-18T00:30:18;5.90;99.90
12841;DHT22;6487;48.626;12.486;2023-11-18T00:32:47;5.90;99.90
12841;DHT22;6487;48.626;12.486;2023-11-18T00:35:16;6.00;99.90
12841;DHT22;6487;48.626;12.486;2023-11-18T00:37:44;5.90;99.90
12841;DHT22;6487;48.626;12.486;2023-11-18T00:40:13;5.90;99.90
12841;DHT22;6487;48.626;12.486;2023-11-18T00:42:45;5.90;99.90
12841;DHT22;6487;48.626;12.486;2023-11-18T00:45:13;5.90;99.90
12841;DHT22;6487;48.626;12.486;2023-11-18T00:47:43;6.00;99.90
12841;DHT22;6487;48.626;12.486;2023-11-18T00:50:11;6.00;99.90
12841;DHT22;6487;48.626;12.486;2023-11-18T00:52:40;5.90;99.90
12841;DHT22;6487;48.626;12.486;2023-11-18T00:55:10;5.90;99.90
12841;DHT22;6487;48.626;12.486;2023-11-18T00:57:38;6.00;99.90
12841;DHT22;6487;48.626;12.486;2023-11-18T01:00:08;6.00;99.90
12841;DHT22;6487;48.626;12.486;2023-11-18T01:02:45;5.80;99.90
12841;DHT22;6487;48.626;12.486;2023-11-18T01:05:15;5.80;99.90
12841;DHT22;6487;48.626;12.486;2023-11-18T01:07:43;5.80;99.90
12841;DHT22;6487;48.626;12.486;2023-11-18T01:10:12;5.80;99.90
12841;DHT22;6487;48.626;12.486;2023-11-18T01:12:41;5.80;99.90
12841;DHT22;6487;48.626;12.486;2023-11-18T01:15:12;5.80;99.90
12841;DHT22;6487;48.626;12.486;2023-11-18T01:17:41;5.70;99.90
12841;DHT22;6487;48.626;12.486;2023-11-18T01:20:12;5.80;99.90
12841;DHT22;6487;48.626;12.486;2023-11-18T01:22:41;5.70;99.90
12841;DHT22;6487;48.626;12.486;2023-11-18T01:25:12;5.70;99.90
12841;DHT22;6487;48.626;12.486;2023-11-18T01:27:41;5.70;99.90
12841;DHT22;6487;48.626;12.486;2023-11-18T01:30:10;5.80;99.90
12841;DHT22;6487;48.626;12.486;2023-11-18T01:32:39;5.80;99.90
12841;DHT22;6487;48.626;12.486;2023-11-18T01:35:08;5.70;99.90
12841;DHT22;6487;48.626;12.486;2023-11-18T01:37:40;5.70;99.90
12841;DHT22;6487;48.626;12.486;2023-11-18T01:40:10;5.80;99.90
12841;DHT22;6487;48.626;12.486;2023-11-18T01:42:42;5.70;99.90
12841;DHT22;6487;48.626;12.486;2023-11-18T01:45:16;5.70;99.90
12841;DHT22;6487;48.626;12.486;2023-11-18T01:47:44;5.70;99.90
12841;DHT22;6487;48.626;12.486;2023-11-18T01:50:16;5.70;99.90
12841;DHT22;6487;48.626;12.486;2023-11-18T01:52:47;5.80;99.90
12841;DHT22;6487;48.626;12.486;2023-11-18T01:55:16;5.80;99.90
12841;DHT22;6487;48.626;12.486;2023-11-18T01:57:44;5.80;99.90
12841;DHT22;6487;48.626;12.486;2023-11-18T02:00:13;5.80;99.90
12841;DHT22;6487;48.626;12.486;2023-11-18T02:02:45;5.80;99.90
12841;DHT22;6487;48.626;12.486;2023-11-18T02:05:15;5.70;99.90
12841;DHT22;6487;48.626;12.486;2023-11-18T02:07:46;5.70;99.90
12841;DHT22;6487;48.626;12.486;2023-11-18T02:10:15;5.70;99.90
12841;DHT22;6487;48.626;12.486;2023-11-18T02:12:49;5.70;99.90
12841;DHT22;6487;48.626;12.486;2023-11-18T02:15:28;5.70;99.90
12841;DHT22;6487;48.626;12.486;2023-11-18T02:17:59;5.70;99.90
12841;DHT22;6487;48.626;12.486;2023-11-18T02:20:30;5.70;99.90
12841;DHT22;6487;48.626;12.486;2023-11-18T02:23:00;5.60;99.90
12841;DHT22;6487;48.626;12.486;2023-11-18T02:25:33;5.70;99.90
12841;DHT22;6487;48.626;12.486;2023-11-18T02:28:04;5.60;99.90
12841;DHT22;6487;48.626;12.486;2023-11-18T02:30:32;5.60;99.90
12841;DHT22;6487;48.626;12.486;2023-11-18T02:33:06;5.60;99.90
12841;DHT22;6487;48.626;12.486;2023-11-18T02:35:46;5.60;99.90
12841;DHT22;6487;48.626;12.486;2023-11-18T02:38:27;5.60;99.90
12841;DHT22;6487;48.626;12.486;2023-11-18T02:41:09;5.60;99.90
12841;DHT22;6487;48.626;12.486;2023-11-18T02:43:41;5.60;99.90
12841;DHT22;6487;48.626;12.486;2023-11-18T02:46:12;5.60;99.90
12841;DHT22;6487;48.626;12.486;2023-11-18T02:48:41;5.60;99.90
12841;DHT22;6487;48.626;12.486;2023-11-18T02:51:13;5.50;99.90
12841;DHT22;6487;48.626;12.486;2023-11-18T02:53:43;5.50;99.90
12841;DHT22;6487;48.626;12.486;2023-11-18T02:56:12;5.50;99.90
12841;DHT22;6487;48.626;12.486;2023-11-18T02:58:42;5.50;99.90
12841;DHT22;6487;48.626;12.486;2023-11-18T03:01:10;5.50;99.90
12841;DHT22;6487;48.626;12.486;2023-11-18T03:03:38;5.60;99.90
12841;DHT22;6487;48.626;12.486;2023-11-18T03:06:10;5.60;99.90
12841;DHT22;6487;48.626;12.486;2023-11-18T03:08:39;5.60;99.90
12841;DHT22;6487;48.626;12.486;2023-11-18T03:11:08;5.60;99.90
12841;DHT22;6487;48.626;12.486;2023-11-18T03:13:42;5.60;99.90
12841;DHT22;6487;48.626;12.486;2023-11-18T03:16:10;5.70;99.90
12841;DHT22;6487;48.626;12.486;2023-11-18T03:18:40;5.60;99.90
12841;DHT22;6487;48.626;12.486;2023-11-18T03:21:11;5.70;99.90
12841;DHT22;6487;48.626;12.486;2023-11-18T03:23:40;5.70;99.90
12841;DHT22;6487;48.626;12.486;2023-11-18T03:26:09;5.60;99.90
12841;DHT22;6487;48.626;12.486;2023-11-18T03:28:37;5.60;99.90
12841;DHT22;6487;48.626;12.486;2023-11-18T03:31:07;5.60;99.90
12841;DHT22;6487;48.626;12.486;2023-11-18T03:33:39;5.60;99.90
12841;DHT22;6487;48.626;12.486;2023-11-18T03:36:08;5.70;99.90
12841;DHT22;6487;48.626;12.486;2023-11-18T03:38:39;5.60;99.90
12841;DHT22;6487;48.626;12.486;2023-11-18T03:41:07;5.60;99.90
12841;DHT22;6487;48.626;12.486;2023-11-18T03:43:37;5.70;99.90
12841;DHT22;6487;48.626;12.486;2023-11-18T03:46:07;5.60;99.90
12841;DHT22;6487;48.626;12.486;2023-11-18T03:48:35;5.70;99.90
12841;DHT22;6487;48.626;12.486;2023-11-18T03:51:04;5.60;99.90
12841;DHT22;6487;48.626;12.486;2023-11-18T03:53:33;5.60;99.90
12841;DHT22;6487;48.626;12.486;2023-11-18T03:56:01;5.60;99.90
12841;DHT22;6487;48.626;12.486;2023-11-18T03:58:30;5.50;99.90
12841;DHT22;6487;48.626;12.486;2023-11-18T04:00:59;5.60;99.90
12841;DHT22;6487;48.626;12.486;2023-11-18T04:03:29;5.60;99.90
12841;DHT22;6487;48.626;12.486;2023-11-18T04:05:58;5.60;99.90
12841;DHT22;6487;48.626;12.486;2023-11-18T04:08:27;5.60;99.90
12841;DHT22;6487;48.626;12.486;2023-11-18T04:10:55;5.50;99.90
12841;DHT22;6487;48.626;12.486;2023-11-18T04:13:25;5.50;99.90
12841;DHT22;6487;48.626;12.486;2023-11-18T04:15:53;5.50;99.90
12841;DHT22;6487;48.626;12.486;2023-11-18T04:18:22;5.60;99.90
12841;DHT22;6487;48.626;12.486;2023-11-18T04:20:52;5.60;99.90
12841;DHT22;6487;48.626;12.486;2023-11-18T04:23:20;5.60;99.90
12841;DHT22;6487;48.626;12.486;2023-11-18T04:25:49;5.70;99.90
12841;DHT22;6487;48.626;12.486;2023-11-18T04:28:18;5.60;99.90
12841;DHT22;6487;48.626;12.486;2023-11-18T04:30:47;5.50;99.90
12841;DHT22;6487;48.626;12.486;2023-11-18T04:33:19;5.60;99.90
12841;DHT22;6487;48.626;12.486;2023-11-18T04:35:53;5.60;99.90
12841;DHT22;6487;48.626;12.486;2023-11-18T04:38:24;5.60;99.90
12841;DHT22;6487;48.626;12.486;2023-11-18T04:40:53;5.70;99.90
12841;DHT22;6487;48.626;12.486;2023-11-18T04:43:22;5.70;99.90
12841;DHT22;6487;48.626;12.486;2023-11-18T04:46:05;5.70;99.90
12841;DHT22;6487;48.626;12.486;2023-11-18T04:48:34;5.70;99.90
12841;DHT22;6487;48.626;12.486;2023-11-18T04:51:12;5.80;99.90
12841;DHT22;6487;48.626;12.486;2023-11-18T04:53:40;5.70;99.90
12841;DHT22;6487;48.626;12.486;2023-11-18T04:56:09;5.60;99.90
12841;DHT22;6487;48.626;12.486;2023-11-18T04:58:38;5.70;99.90
12841;DHT22;6487;48.626;12.486;2023-11-18T05:01:07;5.60;99.90
12841;DHT22;6487;48.626;12.486;2023-11-18T05:03:36;5.60;99.90
12841;DHT22;6487;48.626;12.486;2023-11-18T05:06:05;5.70;99.90
12841;DHT22;6487;48.626;12.486;2023-11-18T05:08:36;5.70;99.90
12841;DHT22;6487;48.626;12.486;2023-11-18T05:11:05;5.60;99.90
12841;DHT22;6487;48.626;12.486;2023-11-18T05:13:33;5.60;99.90
12841;DHT22;6487;48.626;12.486;2023-11-18T05:16:02;5.50;99.90
12841;DHT22;6487;48.626;12.486;2023-11-18T05:18:31;5.50;99.90
12841;DHT22;6487;48.626;12.486;2023-11-18T05:21:04;5.50;99.90
12841;DHT22;6487;48.626;12.486;2023-11-18T05:23:35;5.60;99.90
12841;DHT22;6487;48.626;12.486;2023-11-18T05:26:04;5.70;99.90
12841;DHT22;6487;48.626;12.486;2023-11-18T05:28:33;5.60;99.90
12841;DHT22;6487;48.626;12.486;2023-11-18T05:31:02;5.70;99.90
12841;DHT22;6487;48.626;12.486;2023-11-18T05:33:31;5.70;99.90
12841;DHT22;6487;48.626;12.486;2023-11-18T05:36:03;5.70;99.90
12841;DHT22;6487;48.626;12.486;2023-11-18T05:38:33;5.70;99.90
12841;DHT22;6487;48.626;12.486;2023-11-18T05:41:07;5.70;99.90
12841;DHT22;6487;48.626;12.486;2023-11-18T05:43:43;5.70;99.90
12841;DHT22;6487;48.626;12.486;2023-11-18T05:46:18;5.60;99.90
12841;DHT22;6487;48.626;12.486;2023-11-18T05:48:50;5.60;99.90
12841;DHT22;6487;48.626;12.486;2023-11-18T05:51:20;5.50;99.90
12841;DHT22;6487;48.626;12.486;2023-11-18T05:53:50;5.50;99.90
12841;DHT22;6487;48.626;12.486;2023-11-18T05:56:20;5.50;99.90
12841;DHT22;6487;48.626;12.486;2023-11-18T05:58:50;5.50;99.90
12841;DHT22;6487;48.626;12.486;2023-11-18T06:01:20;5.50;99.90
12841;DHT22;6487;48.626;12.486;2023-11-18T06:03:49;5.50;99.90
12841;DHT22;6487;48.626;12.486;2023-11-18T06:06:18;5.50;99.90
12841;DHT22;6487;48.626;12.486;2023-11-18T06:08:50;5.50;99.90
12841;DHT22;6487;48.626;12.486;2023-11-18T06:11:21;5.50;99.90
12841;DHT22;6487;48.626;12.486;2023-11-18T06:13:51;5.50;99.90
12841;DHT22;6487;48.626;12.486;2023-11-18T06:16:20;5.50;99.90
12841;DHT22;6487;48.626;12.486;2023-11-18T06:18:52;5.50;99.90
12841;DHT22;6487;48.626;12.486;2023-11-18T06:21:22;5.50;99.90
12841;DHT22;6487;48.626;12.486;2023-11-18T06:23:55;5.50;99.90
12841;DHT22;6487;48.626;12.486;2023-11-18T06:26:25;5.50;99.90
12841;DHT22;6487;48.626;12.486;2023-11-18T06:28:55;5.50;99.90
12841;DHT22;6487;48.626;12.486;2023-11-18T06:31:24;5.50;99.90
12841;DHT22;6487;48.626;12.486;2023-11-18T06:33:52;5.50;99.90
12841;DHT22;6487;48.626;12.486;2023-11-18T06:36:21;5.50;99.90
12841;DHT22;6487;48.626;12.486;2023-11-18T06:38:51;5.50;99.90
12841;DHT22;6487;48.626;12.486;2023-11-18T06:41:22;5.50;99.90
12841;DHT22;6487;48.626;12.486;2023-11-18T06:43:54;5.50;99.90
12841;DHT22;6487;48.626;12.486;2023-11-18T06:46:29;5.60;99.90
12841;DHT22;6487;48.626;12.486;2023-11-18T06:49:01;5.50;99.90
12841;DHT22;6487;48.626;12.486;2023-11-18T06:51:35;5.60;99.90
12841;DHT22;6487;48.626;12.486;2023-11-18T06:54:05;5.60;99.90
12841;DHT22;6487;48.626;12.486;2023-11-18T06:56:39;5.60;99.90
12841;DHT22;6487;48.626;12.486;2023-11-18T06:59:13;5.60;99.90
12841;DHT22;6487;48.626;12.486;2023-11-18T07:01:43;5.60;99.90
12841;DHT22;6487;48.626;12.486;2023-11-18T07:04:13;5.70;99.90
12841;DHT22;6487;48.626;12.486;2023-11-18T07:06:42;5.70;99.90
12841;DHT22;6487;48.626;12.486;2023-11-18T07:09:12;5.70;99.90
12841;DHT22;6487;48.626;12.486;2023-11-18T07:11:44;5.70;99.90
12841;DHT22;6487;48.626;12.486;2023-11-18T07:14:15;5.60;99.90
12841;DHT22;6487;48.626;12.486;2023-11-18T07:16:44;5.70;99.90
12841;DHT22;6487;48.626;12.486;2023-11-18T07:19:13;5.70;99.90
12841;DHT22;6487;48.626;12.486;2023-11-18T07:21:48;5.70;99.90
12841;DHT22;6487;48.626;12.486;2023-11-18T07:24:17;5.80;99.90
12841;DHT22;6487;48.626;12.486;2023-11-18T07:26:48;5.70;99.90
12841;DHT22;6487;48.626;12.486;2023-11-18T07:29:19;5.80;99.90
12841;DHT22;6487;48.626;12.486;2023-11-18T07:31:47;5.70;99.90
12841;DHT22;6487;48.626;12.486;2023-11-18T07:34:16;5.70;99.90
12841;DHT22;6487;48.626;12.486;2023-11-18T07:36:44;5.80;99.90
12841;DHT22;6487;48.626;12.486;2023-11-18T07:39:14;5.80;99.90
12841;DHT22;6487;48.626;12.486;2023-11-18T07:41:50;5.90;99.90
12841;DHT22;6487;48.626;12.486;2023-11-18T07:44:23;6.00;99.90
12841;DHT22;6487;48.626;12.486;2023-11-18T07:46:52;6.00;99.90
12841;DHT22;6487;48.626;12.486;2023-11-18T07:49:20;6.00;99.90
12841;DHT22;6487;48.626;12.486;2023-11-18T07:51:53;6.10;99.90
12841;DHT22;6487;48.626;12.486;2023-11-18T07:54:21;6.00;99.90
12841;DHT22;6487;48.626;12.486;2023-11-18T07:56:50;6.00;99.90
12841;DHT22;6487;48.626;12.486;2023-11-18T07:59:23;6.10;99.90
12841;DHT22;6487;48.626;12.486;2023-11-18T08:01:51;6.10;99.90
12841;DHT22;6487;48.626;12.486;2023-11-18T08:04:22;6.00;99.90
12841;DHT22;6487;48.626;12.486;2023-11-18T08:06:53;6.20;99.90
12841;DHT22;6487;48.626;12.486;2023-11-18T08:09:22;6.30;99.90
12841;DHT22;6487;48.626;12.486;2023-11-18T08:11:52;6.50;99.90
12841;DHT22;6487;48.626;12.486;2023-11-18T08:14:26;6.50;99.90
12841;DHT22;6487;48.626;12.486;2023-11-18T08:16:55;6.40;99.90
12841;DHT22;6487;48.626;12.486;2023-11-18T08:19:27;6.50;99.90
12841;DHT22;6487;48.626;12.486;2023-11-18T08:21:55;6.50;99.90
12841;DHT22;6487;48.626;12.486;2023-11-18T08:24:25;6.40;99.90
12841;DHT22;6487;48.626;12.486;2023-11-18T08:26:53;6.50;99.90
12841;DHT22;6487;48.626;12.486;2023-11-18T08:29:23;6.50;99.90
12841;DHT22;6487;48.626;12.486;2023-11-18T08:31:54;6.50;99.90
12841;DHT22;6487;48.626;12.486;2023-11-18T08:34:23;6.50;99.90
12841;DHT22;6487;48.626;12.486;2023-11-18T08:36:52;6.50;99.90
12841;DHT22;6487;48.626;12.486;2023-11-18T08:39:21;6.50;99.90
12841;DHT22;6487;48.626;12.486;2023-11-18T08:41:52;6.60;99.90
12841;DHT22;6487;48.626;12.486;2023-11-18T08:44:22;6.50;99.90
12841;DHT22;6487;48.626;12.486;2023-11-18T08:46:52;6.50;99.90
12841;DHT22;6487;48.626;12.486;2023-11-18T08:49:21;6.40;99.90
12841;DHT22;6487;48.626;12.486;2023-11-18T08:51:49;6.40;99.90
12841;DHT22;6487;48.626;12.486;2023-11-18T08:54:23;6.40;99.90
12841;DHT22;6487;48.626;12.486;2023-11-18T08:57:04;6.40;99.90
12841;DHT22;6487;48.626;12.486;2023-11-18T08:59:50;6.40;99.90
12841;DHT22;6487;48.626;12.486;2023-11-18T09:02:19;6.40;99.90
12841;DHT22;6487;48.626;12.486;2023-11-18T09:04:50;6.30;99.90
12841;DHT22;6487;48.626;12.486;2023-11-18T09:07:22;6.40;99.90
12841;DHT22;6487;48.626;12.486;2023-11-18T09:09:50;6.40;99.90
12841;DHT22;6487;48.626;12.486;2023-11-18T09:12:19;6.40;99.90
12841;DHT22;6487;48.626;12.486;2023-11-18T09:14:49;6.50;99.90
12841;DHT22;6487;48.626;12.486;2023-11-18T09:17:19;6.50;99.90
12841;DHT22;6487;48.626;12.486;2023-11-18T09:19:49;6.50;99.90
12841;DHT22;6487;48.626;12.486;2023-11-18T09:22:19;6.40;99.90
12841;DHT22;6487;48.626;12.486;2023-11-18T09:24:50;6.40;99.90
12841;DHT22;6487;48.626;12.486;2023-11-18T09:27:18;6.40;99.90
12841;DHT22;6487;48.626;12.486;2023-11-18T09:29:46;6.40;99.90
12841;DHT22;6487;48.626;12.486;2023-11-18T09:32:16;6.50;99.90
12841;DHT22;6487;48.626;12.486;2023-11-18T09:34:45;6.60;99.90
12841;DHT22;6487;48.626;12.486;2023-11-18T09:37:15;6.60;99.90
12841;DHT22;6487;48.626;12.486;2023-11-18T09:39:43;6.60;99.90
12841;DHT22;6487;48.626;12.486;2023-11-18T09:42:13;6.60;99.90
12841;DHT22;6487;48.626;12.486;2023-11-18T09:44:45;6.60;99.90
12841;DHT22;6487;48.626;12.486;2023-11-18T09:47:17;6.60;99.90
12841;DHT22;6487;48.626;12.486;2023-11-18T09:49:52;6.70;99.90
12841;DHT22;6487;48.626;12.486;2023-11-18T09:52:24;6.70;99.90
12841;DHT22;6487;48.626;12.486;2023-11-18T09:54:58;6.70;99.90
12841;DHT22;6487;48.626;12.486;2023-11-18T09:57:32;6.60;99.90
12841;DHT22;6487;48.626;12.486;2023-11-18T10:00:05;6.70;99.90
12841;DHT22;6487;48.626;12.486;2023-11-18T10:02:49;6.80;99.90
12841;DHT22;6487;48.626;12.486;2023-11-18T10:05:19;6.80;99.90
12841;DHT22;6487;48.626;12.486;2023-11-18T10:07:50;6.90;99.90
12841;DHT22;6487;48.626;12.486;2023-11-18T10:10:32;7.00;99.90
12841;DHT22;6487;48.626;12.486;2023-11-18T10:13:05;6.90;99.90
12841;DHT22;6487;48.626;12.486;2023-11-18T10:15:50;6.90;99.90
12841;DHT22;6487;48.626;12.486;2023-11-18T10:18:22;6.90;99.90
12841;DHT22;6487;48.626;12.486;2023-11-18T10:20:52;7.00;99.90
12841;DHT22;6487;48.626;12.486;2023-11-18T10:23:22;7.20;99.90
12841;DHT22;6487;48.626;12.486;2023-11-18T10:25:55;7.30;99.90
12841;DHT22;6487;48.626;12.486;2023-11-18T10:28:25;7.40;99.90
12841;DHT22;6487;48.626;12.486;2023-11-18T10:30:56;7.40;99.90
12841;DHT22;6487;48.626;12.486;2023-11-18T10:33:27;7.50;99.90
12841;DHT22;6487;48.626;12.486;2023-11-18T10:35:58;7.60;99.90
12841;DHT22;6487;48.626;12.486;2023-11-18T10:38:31;7.70;99.90
12841;DHT22;6487;48.626;12.486;2023-11-18T10:41:04;7.80;99.90
12841;DHT22;6487;48.626;12.486;2023-11-18T10:43:34;7.50;99.90
12841;DHT22;6487;48.626;12.486;2023-11-18T10:46:07;7.70;99.90
12841;DHT22;6487;48.626;12.486;2023-11-18T10:48:43;7.60;99.90
12841;DHT22;6487;48.626;12.486;2023-11-18T10:51:18;7.70;99.90
12841;DHT22;6487;48.626;12.486;2023-11-18T10:53:48;7.70;99.90
12841;DHT22;6487;48.626;12.486;2023-11-18T10:56:26;7.70;99.90
12841;DHT22;6487;48.626;12.486;2023-11-18T10:58:57;7.80;99.90
12841;DHT22;6487;48.626;12.486;2023-11-18T11:01:30;8.00;99.90
12841;DHT22;6487;48.626;12.486;2023-11-18T11:04:01;8.00;99.90
12841;DHT22;6487;48.626;12.486;2023-11-18T11:06:32;8.10;99.90
12841;DHT22;6487;48.626;12.486;2023-11-18T11:09:04;8.20;99.90
12841;DHT22;6487;48.626;12.486;2023-11-18T11:11:47;8.30;99.90
12841;DHT22;6487;48.626;12.486;2023-11-18T11:14:20;8.30;99.90
12841;DHT22;6487;48.626;12.486;2023-11-18T11:16:54;8.30;99.90
12841;DHT22;6487;48.626;12.486;2023-11-18T11:19:41;8.20;99.90
12841;DHT22;6487;48.626;12.486;2023-11-18T11:22:18;8.20;99.90
12841;DHT22;6487;48.626;12.486;2023-11-18T11:24:54;8.30;99.90
12841;DHT22;6487;48.626;12.486;2023-11-18T11:27:33;8.20;99.90
12841;DHT22;6487;48.626;12.486;2023-11-18T11:30:13;8.20;99.90
12841;DHT22;6487;48.626;12.486;2023-11-18T11:32:50;8.30;99.90
12841;DHT22;6487;48.626;12.486;2023-11-18T11:35:23;8.20;99.90
12841;DHT22;6487;48.626;12.486;2023-11-18T11:37:52;8.20;99.90
12841;DHT22;6487;48.626;12.486;2023-11-18T11:40:30;8.20;99.90
12841;DHT22;6487;48.626;12.486;2023-11-18T11:43:00;8.10;99.90
12841;DHT22;6487;48.626;12.486;2023-11-18T11:45:32;8.20;99.90
12841;DHT22;6487;48.626;12.486;2023-11-18T11:48:03;8.10;99.90
12841;DHT22;6487;48.626;12.486;2023-11-18T11:51:04;8.10;99.90
12841;DHT22;6487;48.626;12.486;2023-11-18T11:53:47;8.20;99.90
12841;DHT22;6487;48.626;12.486;2023-11-18T11:56:48;8.20;99.90
12841;DHT22;6487;48.626;12.486;2023-11-18T11:59:35;8.10;99.90
12841;DHT22;6487;48.626;12.486;2023-11-18T12:02:05;8.10;99.90
12841;DHT22;6487;48.626;12.486;2023-11-18T12:04:35;8.10;99.90
12841;DHT22;6487;48.626;12.486;2023-11-18T12:07:08;8.10;99.90
12841;DHT22;6487;48.626;12.486;2023-11-18T12:09:47;8.20;99.90
12841;DHT22;6487;48.626;12.486;2023-11-18T12:12:21;8.20;99.90
12841;DHT22;6487;48.626;12.486;2023-11-18T12:14:54;8.30;99.90
12841;DHT22;6487;48.626;12.486;2023-11-18T12:17:24;8.20;99.90
12841;DHT22;6487;48.626;12.486;2023-11-18T12:19:59;8.30;99.90
12841;DHT22;6487;48.626;12.486;2023-11-18T12:23:05;8.30;99.90
12841;DHT22;6487;48.626;12.486;2023-11-18T12:25:42;8.30;99.90
12841;DHT22;6487;48.626;12.486;2023-11-18T12:28:15;8.40;99.90
12841;DHT22;6487;48.626;12.486;2023-11-18T12:30:48;8.40;99.90
12841;DHT22;6487;48.626;12.486;2023-11-18T12:33:23;8.40;99.90
12841;DHT22;6487;48.626;12.486;2023-11-18T12:39:45;8.60;99.90
12841;DHT22;6487;48.626;12.486;2023-11-18T12:42:44;8.60;99.90
12841;DHT22;6487;48.626;12.486;2023-11-18T12:45:57;8.60;99.90
12841;DHT22;6487;48.626;12.486;2023-11-18T12:48:54;8.60;99.90
12841;DHT22;6487;48.626;12.486;2023-11-18T12:51:26;8.70;99.90
12841;DHT22;6487;48.626;12.486;2023-11-18T12:53:58;8.70;99.90
12841;DHT22;6487;48.626;12.486;2023-11-18T12:56:28;8.50;99.90
12841;DHT22;6487;48.626;12.486;2023-11-18T12:58:58;8.60;99.90
12841;DHT22;6487;48.626;12.486;2023-11-18T13:01:27;8.50;99.90
12841;DHT22;6487;48.626;12.486;2023-11-18T13:03:55;8.40;99.90
12841;DHT22;6487;48.626;12.486;2023-11-18T13:06:24;8.40;99.90
12841;DHT22;6487;48.626;12.486;2023-11-18T13:08:55;8.40;99.90
12841;DHT22;6487;48.626;12.486;2023-11-18T13:11:25;8.40;99.90
12841;DHT22;6487;48.626;12.486;2023-11-18T13:13:55;8.40;99.90
12841;DHT22;6487;48.626;12.486;2023-11-18T13:16:24;8.50;99.90
12841;DHT22;6487;48.626;12.486;2023-11-18T13:18:53;8.50;99.90
12841;DHT22;6487;48.626;12.486;2023-11-18T13:21:23;8.20;99.90
12841;DHT22;6487;48.626;12.486;2023-11-18T13:23:54;8.10;99.90
12841;DHT22;6487;48.626;12.486;2023-11-18T13:26:25;8.00;99.90
12841;DHT22;6487;48.626;12.486;2023-11-18T13:28:55;7.70;99.90
12841;DHT22;6487;48.626;12.486;2023-11-18T13:31:23;7.80;99.90
12841;DHT22;6487;48.626;12.486;2023-11-18T13:33:52;7.80;99.90
12841;DHT22;6487;48.626;12.486;2023-11-18T13:36:20;7.80;99.90
12841;DHT22;6487;48.626;12.486;2023-11-18T13:38:49;7.80;99.90
12841;DHT22;6487;48.626;12.486;2023-11-18T13:41:30;7.70;99.90
12841;DHT22;6487;48.626;12.486;2023-11-18T13:44:00;7.60;99.90
12841;DHT22;6487;48.626;12.486;2023-11-18T13:46:30;7.80;99.90
12841;DHT22;6487;48.626;12.486;2023-11-18T13:48:58;7.90;99.90
12841;DHT22;6487;48.626;12.486;2023-11-18T13:51:27;8.00;99.90
12841;DHT22;6487;48.626;12.486;2023-11-18T13:53:57;8.00;99.90
12841;DHT22;6487;48.626;12.486;2023-11-18T13:56:28;8.00;99.90
12841;DHT22;6487;48.626;12.486;2023-11-18T13:58:57;7.90;99.90
12841;DHT22;6487;48.626;12.486;2023-11-18T14:01:27;7.90;99.90
12841;DHT22;6487;48.626;12.486;2023-11-18T14:03:56;7.90;99.90
12841;DHT22;6487;48.626;12.486;2023-11-18T14:06:31;7.90;99.90
12841;DHT22;6487;48.626;12.486;2023-11-18T14:08:59;7.90;99.90
12841;DHT22;6487;48.626;12.486;2023-11-18T14:11:28;8.00;99.90
12841;DHT22;6487;48.626;12.486;2023-11-18T14:13:57;8.10;99.90
12841;DHT22;6487;48.626;12.486;2023-11-18T14:16:28;8.10;99.90
12841;DHT22;6487;48.626;12.486;2023-11-18T14:18:56;8.10;99.90
12841;DHT22;6487;48.626;12.486;2023-11-18T14:21:24;8.20;99.90
12841;DHT22;6487;48.626;12.486;2023-11-18T14:23:53;8.30;99.90
12841;DHT22;6487;48.626;12.486;2023-11-18T14:26:26;8.30;99.90
12841;DHT22;6487;48.626;12.486;2023-11-18T14:28:56;8.30;99.90
12841;DHT22;6487;48.626;12.486;2023-11-18T14:31:27;8.30;99.90
12841;DHT22;6487;48.626;12.486;2023-11-18T14:33:56;8.30;99.90
12841;DHT22;6487;48.626;12.486;2023-11-18T14:36:26;8.30;99.90
12841;DHT22;6487;48.626;12.486;2023-11-18T14:38:54;8.30;99.90
12841;DHT22;6487;48.626;12.486;2023-11-18T14:41:25;8.20;99.90
12841;DHT22;6487;48.626;12.486;2023-11-18T14:43:55;8.20;99.90
12841;DHT22;6487;48.626;12.486;2023-11-18T14:46:24;8.20;99.90
12841;DHT22;6487;48.626;12.486;2023-11-18T14:48:55;8.20;99.90
12841;DHT22;6487;48.626;12.486;2023-11-18T14:51:24;8.10;99.90
12841;DHT22;6487;48.626;12.486;2023-11-18T14:53:53;8.10;99.90
12841;DHT22;6487;48.626;12.486;2023-11-18T14:56:21;8.10;99.90
12841;DHT22;6487;48.626;12.486;2023-11-18T14:58:49;8.10;99.90
12841;DHT22;6487;48.626;12.486;2023-11-18T15:01:19;8.00;99.90
12841;DHT22;6487;48.626;12.486;2023-11-18T15:03:47;8.00;99.90
12841;DHT22;6487;48.626;12.486;2023-11-18T15:06:25;7.90;99.90
12841;DHT22;6487;48.626;12.486;2023-11-18T15:08:54;7.90;99.90
12841;DHT22;6487;48.626;12.486;2023-11-18T15:11:24;7.80;99.90
12841;DHT22;6487;48.626;12.486;2023-11-18T15:13:53;7.70;99.90
12841;DHT22;6487;48.626;12.486;2023-11-18T15:16:23;7.60;99.90
12841;DHT22;6487;48.626;12.486;2023-11-18T15:18:52;7.50;99.90
12841;DHT22;6487;48.626;12.486;2023-11-18T15:21:22;7.40;99.90
12841;DHT22;6487;48.626;12.486;2023-11-18T15:23:52;7.30;99.90
12841;DHT22;6487;48.626;12.486;2023-11-18T15:26:26;7.20;99.90
12841;DHT22;6487;48.626;12.486;2023-11-18T15:28:54;7.10;99.90
12841;DHT22;6487;48.626;12.486;2023-11-18T15:31:25;7.10;99.90
12841;DHT22;6487;48.626;12.486;2023-11-18T15:33:56;7.10;99.90
12841;DHT22;6487;48.626;12.486;2023-11-18T15:36:24;7.00;99.90
12841;DHT22;6487;48.626;12.486;2023-11-18T15:38:55;7.00;99.90
12841;DHT22;6487;48.626;12.486;2023-11-18T15:41:30;6.90;99.90
12841;DHT22;6487;48.626;12.486;2023-11-18T15:43:58;6.90;99.90
12841;DHT22;6487;48.626;12.486;2023-11-18T15:46:26;6.80;99.90
12841;DHT22;6487;48.626;12.486;2023-11-18T15:48:55;6.80;99.90
12841;DHT22;6487;48.626;12.486;2023-11-18T15:51:23;6.60;99.90
12841;DHT22;6487;48.626;12.486;2023-11-18T15:53:54;6.60;99.90
12841;DHT22;6487;48.626;12.486;2023-11-18T15:56:23;6.40;99.90
12841;DHT22;6487;48.626;12.486;2023-11-18T15:58:51;6.40;99.90
12841;DHT22;6487;48.626;12.486;2023-11-18T16:01:20;6.30;99.90
12841;DHT22;6487;48.626;12.486;2023-11-18T16:03:49;6.20;99.90
12841;DHT22;6487;48.626;12.486;2023-11-18T16:06:17;6.20;99.90
12841;DHT22;6487;48.626;12.486;2023-11-18T16:08:46;6.20;99.90
12841;DHT22;6487;48.626;12.486;2023-11-18T16:11:18;6.20;99.90
12841;DHT22;6487;48.626;12.486;2023-11-18T16:13:46;6.10;99.90